Terminal Aerodrome Forecast
Issued by NWS

Home | Current Version | Previous Version | Text Only | Print | Product List | Glossary On
Versions: 1 2 3 4 5 6 7 8 9 10 11 12
500
FTUS44 KLZK 271120
TAFPBF
TAF
KPBF 271120Z 2712/2812 VRB04KT P6SM VCTS SCT020CB OVC040
      TEMPO 2712/2714 BKN040CB
     FM271400 16007KT P6SM VCTS SCT025 OVC040CB
      TEMPO 2716/2720 3SM TSRA BR OVC025CB
     FM272000 23010KT 5SM -SHRA BR OVC025
      TEMPO 2720/2724 3SM TSRA BR OVC020CB
     FM280000 21006KT P6SM VCTS SCT025CB OVC050=

USA.gov is the U.S. government's official web portal to all federal, state and local government web resources and services.